Kezdőlap
METAR-TAF:

METAR-TAF

Repülőterek :

Ōdate-Noshiro, Japán

földrajzi szélesség: 40-11N, földrajzi hosszúság: 140-12E, magasság: 84 m

Jelenlegi meteorológiai megfigyelések

A jelentés 4 órával és 52 perccel ezelõtt készült, 10:00 UTC
Nyugat-délnyugati szél 8 kt
Hőmérséklet 10°C
Páratartalom 93%
Légköri nyomás 1007 hPa
Látótávolság: 5000 m
Kevés felhő 500 lábon
Szakadozott felhőzet 1000 lábon
Szakadozott felhőzet 1500 lábon
enyhe záporok, Párásság,

METAR: RJSR 251000Z 25008KT 5000 -SHRA BR FEW005 BKN010 BKN015 10/09 Q1007

Idő: 23:52 (14:52 UTC)


TAF: hiányzik

Meteorológiai megfigyelések és előrejelzések több, mint 4000 repülőtéren (METAR és TAF jelentéseket).

A térképen piros és sárga pontok jelzik az elérhető meteorológiai állomásokat.

Mozgassa az egeret a pont fölött, hogy megjelenjen az állomás neve.

Azután kattintson az időjárási megfigyelések és előrejelzések megtekintéséhez.

A térkép megváltoztatása: kattintson a fekete keresztel jelölt zöld gombra ráközelítéshez, a vonallal jelölt zöld gombra távolításhoz, vagy a zöld nyilakra a szomszédos térképek eléréséhez.


METAR-TAF: